Time;durP1;ratioP1;P1;durP2;ratioP2;P2;SDS_P1;SDS_P2;PMS_P1;PMS_P2;Temp;Humidity;BMP_temperature;BMP_pressure;BME280_temperature;BME280_humidity;BME280_pressure;Samples;Min_cycle;Max_cycle;Signal;HPM_P1;HPM_P2
2023/01/26 00:01:48;;;;;;;20.43;13.47;;;;;;;-1.18;100.00;96274.28;5093050;28;24450;-71
2023/01/26 00:04:14;;;;;;;14.30;12.55;;;;;;;-1.29;100.00;96267.56;5089595;28;24441;-71
2023/01/26 00:06:42;;;;;;;15.20;12.70;;;;;;;-1.36;100.00;96271.03;5097263;28;24438;-71
2023/01/26 00:09:13;;;;;;;15.02;12.82;;;;;;;-1.31;100.00;96266.72;5094153;28;24441;-71
2023/01/26 00:11:39;;;;;;;16.48;12.38;;;;;;;-1.31;100.00;96263.34;5099231;28;24450;-71
2023/01/26 00:14:06;;;;;;;19.05;13.57;;;;;;;-1.52;100.00;96251.66;5091009;28;24442;-71
2023/01/26 00:16:32;;;;;;;15.05;12.30;;;;;;;-1.72;100.00;96245.03;5099299;28;24430;-71
2023/01/26 00:18:59;;;;;;;12.87;10.17;;;;;;;-1.63;100.00;96241.63;5099113;28;25106;-71
2023/01/26 00:21:25;;;;;;;14.68;11.25;;;;;;;-1.57;100.00;96246.63;5094509;28;24471;-72
2023/01/26 00:23:53;;;;;;;18.25;11.50;;;;;;;-1.52;100.00;96246.56;5097686;28;24445;-72
2023/01/26 00:26:21;;;;;;;14.93;11.47;;;;;;;-1.41;100.00;96239.72;5099459;28;24519;-71
2023/01/26 00:28:48;;;;;;;15.13;12.07;;;;;;;-1.31;100.00;96236.25;5098425;28;24475;-71
2023/01/26 00:31:16;;;;;;;13.63;11.25;;;;;;;-1.30;100.00;96232.88;5107678;28;24792;-72
2023/01/26 00:33:43;;;;;;;17.40;12.13;;;;;;;-1.15;100.00;96228.47;5100253;28;24441;-72
2023/01/26 00:36:09;;;;;;;14.68;12.43;;;;;;;-1.18;100.00;96215.81;5100609;28;24468;-72
2023/01/26 00:38:36;;;;;;;15.20;11.25;;;;;;;-1.19;100.00;96216.66;5095633;28;24445;-72
2023/01/26 00:41:04;;;;;;;13.87;11.13;;;;;;;-1.10;100.00;96204.72;5095217;28;24437;-72
2023/01/26 00:43:30;;;;;;;13.45;11.25;;;;;;;-1.15;100.00;96208.13;5096791;28;24445;-71
2023/01/26 00:45:57;;;;;;;15.30;11.73;;;;;;;-1.14;100.00;96203.06;5082936;28;24800;-71
2023/01/26 00:48:23;;;;;;;12.27;10.97;;;;;;;-1.25;100.00;96202.31;5100438;28;25324;-71
2023/01/26 00:50:50;;;;;;;13.10;10.55;;;;;;;-1.44;100.00;96201.66;5092798;28;24446;-71
2023/01/26 00:53:17;;;;;;;13.40;10.52;;;;;;;-1.62;100.00;96202.66;5104498;28;24993;-71
2023/01/26 00:55:43;;;;;;;13.68;11.20;;;;;;;-1.80;100.00;96200.25;5100990;28;24525;-71
2023/01/26 00:58:11;;;;;;;12.67;11.37;;;;;;;-1.86;100.00;96203.66;5098255;28;24669;-71
2023/01/26 01:00:38;;;;;;;16.23;11.00;;;;;;;-1.96;100.00;96197.84;5089434;28;24502;-71
2023/01/26 01:03:06;;;;;;;15.30;11.30;;;;;;;-1.99;100.00;96197.84;5088593;28;24461;-71
2023/01/26 01:05:33;;;;;;;14.82;10.65;;;;;;;-1.79;100.00;96201.94;5096476;28;24831;-71
2023/01/26 01:08:00;;;;;;;14.30;10.30;;;;;;;-1.79;100.00;96195.16;5105915;28;24438;-71
2023/01/26 01:10:28;;;;;;;12.13;10.52;;;;;;;-1.80;100.00;96203.63;5096685;28;24888;-71
2023/01/26 01:12:55;;;;;;;14.13;10.98;;;;;;;-1.73;100.00;96197.66;5092997;28;24998;-71
2023/01/26 01:15:23;;;;;;;13.70;10.05;;;;;;;-1.54;100.00;96188.19;5090562;28;24858;-71
2023/01/26 01:17:49;;;;;;;15.80;11.93;;;;;;;-1.49;100.00;96190.69;5097304;28;24524;-71
2023/01/26 01:20:16;;;;;;;14.82;11.60;;;;;;;-1.50;100.00;96194.91;5095814;28;24444;-71
2023/01/26 01:22:42;;;;;;;12.93;10.80;;;;;;;-1.49;100.00;96198.28;5098956;28;24485;-71
2023/01/26 01:25:09;;;;;;;14.98;10.52;;;;;;;-1.46;100.00;96196.56;5100824;28;24437;-71
2023/01/26 01:27:35;;;;;;;13.98;10.88;;;;;;;-1.42;100.00;96187.22;5101384;28;24449;-71
2023/01/26 01:30:06;;;;;;;13.95;11.65;;;;;;;-1.50;100.00;96189.84;5102031;28;24437;-71
2023/01/26 01:32:35;;;;;;;14.13;11.60;;;;;;;-1.63;100.00;96180.66;5098845;28;24843;-71
2023/01/26 01:35:02;;;;;;;11.88;10.68;;;;;;;-1.75;100.00;96183.28;5105346;28;25023;-72
2023/01/26 01:37:29;;;;;;;13.10;10.73;;;;;;;-1.78;100.00;96189.25;5102023;28;24438;-71
2023/01/26 01:39:56;;;;;;;14.97;11.17;;;;;;;-1.83;100.00;96183.34;5096892;28;25038;-71
2023/01/26 01:42:23;;;;;;;13.57;10.88;;;;;;;-1.86;100.00;96188.44;5100763;28;24990;-72
2023/01/26 01:45:23;;;;;;;14.68;10.93;;;;;;;-1.80;100.00;96179.94;5099203;28;24426;-71
2023/01/26 01:47:51;;;;;;;14.05;10.73;;;;;;;-1.76;100.00;96163.81;5099397;28;24438;-72
2023/01/26 01:50:18;;;;;;;10.88;9.32;;;;;;;-1.65;100.00;96163.75;5093924;28;24442;-72
2023/01/26 01:52:45;;;;;;;12.57;9.70;;;;;;;-1.58;100.00;96165.38;5100800;28;24437;-71
2023/01/26 01:55:14;;;;;;;13.23;10.63;;;;;;;-1.42;100.00;96168.59;5102561;28;25943;-72
2023/01/26 01:57:44;;;;;;;11.65;10.45;;;;;;;-1.42;100.00;96166.06;5101721;28;24448;-71
2023/01/26 02:00:13;;;;;;;14.27;11.18;;;;;;;-1.55;100.00;96160.28;5098959;28;24436;-71
2023/01/26 02:02:42;;;;;;;13.43;10.82;;;;;;;-1.54;100.00;96159.41;5091078;28;24455;-71
2023/01/26 02:05:19;;;;;;;12.30;10.90;;;;;;;-1.61;100.00;96152.69;5089924;28;24436;-71
2023/01/26 02:07:46;;;;;;;16.17;11.10;;;;;;;-1.53;100.00;96150.91;5094157;28;24449;-72
2023/01/26 02:10:19;;;;;;;11.53;10.07;;;;;;;-1.77;100.00;96154.53;5099129;28;24472;-71
2023/01/26 02:12:48;;;;;;;15.10;10.65;;;;;;;-1.76;100.00;96161.28;5102347;28;24434;-71
2023/01/26 02:15:15;;;;;;;12.00;9.55;;;;;;;-1.64;100.00;96156.09;5092380;28;24835;-71
2023/01/26 02:17:41;;;;;;;12.43;10.88;;;;;;;-1.71;100.00;96162.94;5095381;28;24503;-71
2023/01/26 02:20:17;;;;;;;13.35;9.63;;;;;;;-1.62;100.00;96153.56;5099189;28;24442;-71
2023/01/26 02:22:54;;;;;;;10.65;9.05;;;;;;;-1.52;100.00;96153.47;5092219;28;24465;-71
2023/01/26 02:25:30;;;;;;;11.60;10.10;;;;;;;-1.45;100.00;96156.75;5090998;28;24444;-72
2023/01/26 02:27:58;;;;;;;14.32;10.40;;;;;;;-1.56;100.00;96164.50;5083404;28;24433;-71
2023/01/26 02:30:27;;;;;;;13.80;11.05;;;;;;;-1.67;100.00;96160.34;5092490;28;24437;-71
2023/01/26 02:32:53;;;;;;;10.95;9.75;;;;;;;-1.63;100.00;96162.00;5094660;28;24441;-71
2023/01/26 02:35:20;;;;;;;12.53;10.03;;;;;;;-1.73;100.00;96153.66;5102622;28;24456;-71
2023/01/26 02:37:46;;;;;;;10.57;9.48;;;;;;;-1.73;100.00;96146.88;5097109;28;24504;-71
2023/01/26 02:40:20;;;;;;;13.95;10.10;;;;;;;-1.69;100.00;96141.78;5095808;28;24441;-71
2023/01/26 02:42:46;;;;;;;14.38;10.27;;;;;;;-1.55;100.00;96140.78;5082661;28;24462;-71
2023/01/26 02:45:15;;;;;;;13.57;9.60;;;;;;;-1.50;100.00;96143.28;5096068;28;24438;-72
2023/01/26 02:47:43;;;;;;;15.45;11.00;;;;;;;-1.19;100.00;96142.94;5099178;28;24474;-71
2023/01/26 02:50:10;;;;;;;13.25;10.32;;;;;;;-1.24;100.00;96137.94;5088106;28;24435;-71
2023/01/26 02:52:37;;;;;;;14.75;10.65;;;;;;;-1.12;100.00;96130.16;5097873;28;24429;-71
2023/01/26 02:55:23;;;;;;;13.33;10.80;;;;;;;-1.10;100.00;96130.16;5097121;28;24506;-71
2023/01/26 02:57:51;;;;;;;14.52;11.40;;;;;;;-1.30;100.00;96136.31;5097669;28;24434;-71
2023/01/26 03:00:21;;;;;;;12.80;11.48;;;;;;;-1.48;100.00;96136.50;5090705;28;24434;-71
2023/01/26 03:02:49;;;;;;;12.68;10.63;;;;;;;-1.73;100.00;96138.41;5089724;28;24611;-71
2023/01/26 03:05:15;;;;;;;15.82;10.73;;;;;;;-1.85;100.00;96147.00;5101916;28;24436;-71
2023/01/26 03:07:42;;;;;;;12.57;11.25;;;;;;;-1.94;100.00;96141.97;5094455;28;24441;-71
2023/01/26 03:10:09;;;;;;;13.73;11.40;;;;;;;-1.96;100.00;96134.38;5099068;28;24434;-71
2023/01/26 03:12:36;;;;;;;12.60;9.60;;;;;;;-1.85;100.00;96130.91;5090646;28;24435;-71
2023/01/26 03:17:48;;;;;;;13.05;11.00;;;;;;;-1.84;100.00;96124.97;5097823;28;24441;-71
2023/01/26 03:28:27;;;;;;;14.18;10.60;;;;;;;-2.05;100.00;96126.81;5087387;28;24625;-71
2023/01/26 03:30:57;;;;;;;12.93;10.48;;;;;;;-2.02;100.00;96129.34;5104655;28;24437;-71
2023/01/26 03:33:25;;;;;;;12.73;10.60;;;;;;;-2.09;100.00;96127.69;5093927;28;24461;-71
2023/01/26 03:35:53;;;;;;;12.55;10.18;;;;;;;-2.18;100.00;96121.88;5103585;28;25365;-71
2023/01/26 03:38:20;;;;;;;12.00;9.93;;;;;;;-2.21;100.00;96115.97;5094458;28;24434;-71
2023/01/26 03:57:12;;;;;;;18.40;11.90;;;;;;;-2.21;100.00;96092.28;5097206;28;24444;-71
2023/01/26 03:59:38;;;;;;;12.90;11.13;;;;;;;-2.21;100.00;96092.28;5095451;28;24430;-71
2023/01/26 04:10:20;;;;;;;11.80;10.10;;;;;;;-2.06;100.00;96091.31;5087285;28;24522;-71
2023/01/26 04:23:47;;;;;;;11.60;8.68;;;;;;;-2.16;100.00;96080.38;5100926;28;24538;-72
2023/01/26 04:26:14;;;;;;;13.15;8.23;;;;;;;-2.04;100.00;96085.38;5100236;28;24430;-71
2023/01/26 04:28:41;;;;;;;10.43;8.98;;;;;;;-1.63;100.00;96091.78;5097069;28;24434;-72
2023/01/26 04:31:07;;;;;;;10.50;9.20;;;;;;;-1.44;100.00;96077.19;5104297;28;24978;-72
2023/01/26 04:33:34;;;;;;;11.95;8.73;;;;;;;-1.49;100.00;96082.28;5091671;28;24434;-72
2023/01/26 04:36:04;;;;;;;9.82;8.23;;;;;;;-1.17;100.00;96080.25;5091782;28;24433;-72
2023/01/26 04:38:31;;;;;;;12.07;7.78;;;;;;;-1.26;100.00;96087.13;5095253;28;24434;-72
2023/01/26 04:40:57;;;;;;;10.47;8.53;;;;;;;-1.09;100.00;96083.53;5089806;28;24470;-72
2023/01/26 04:43:24;;;;;;;9.65;8.00;;;;;;;-0.99;100.00;96085.94;5096862;28;24458;-71
2023/01/26 04:45:58;;;;;;;8.85;7.82;;;;;;;-0.95;100.00;96078.28;5093593;28;24454;-72
2023/01/26 04:48:25;;;;;;;9.50;8.20;;;;;;;-1.07;100.00;96082.66;5094642;28;24459;-72
2023/01/26 04:50:55;;;;;;;9.47;8.43;;;;;;;-1.17;100.00;96082.78;5095256;28;24438;-71
2023/01/26 04:53:23;;;;;;;10.43;7.65;;;;;;;-1.38;100.00;96082.16;5102282;28;24436;-71
2023/01/26 04:55:49;;;;;;;10.02;8.02;;;;;;;-1.42;100.00;96080.53;5094972;28;24430;-72
2023/01/26 04:58:16;;;;;;;9.38;8.38;;;;;;;-1.42;100.00;96079.69;5089984;28;24440;-72
2023/01/26 05:00:42;;;;;;;10.75;8.90;;;;;;;-1.55;100.00;96073.91;5093902;28;24809;-71
2023/01/26 05:03:09;;;;;;;11.63;9.27;;;;;;;-1.66;100.00;96066.41;5092821;28;25042;-71
2023/01/26 05:05:36;;;;;;;11.38;9.05;;;;;;;-1.57;100.00;96065.44;5097421;28;24442;-71
2023/01/26 05:08:03;;;;;;;9.05;7.88;;;;;;;-1.33;100.00;96069.44;5087180;28;24457;-71
2023/01/26 05:10:31;;;;;;;8.07;7.20;;;;;;;-1.03;100.00;96068.22;5095164;28;24438;-72
2023/01/26 05:12:58;;;;;;;12.63;8.50;;;;;;;-1.17;100.00;96072.63;5088167;28;24433;-72
2023/01/26 05:15:25;;;;;;;9.52;8.15;;;;;;;-1.33;100.00;96064.34;5090680;28;24437;-72
2023/01/26 05:17:51;;;;;;;9.70;8.07;;;;;;;-1.40;100.00;96068.66;5090780;28;24457;-71
2023/01/26 05:20:18;;;;;;;10.30;8.63;;;;;;;-1.52;100.00;96069.63;5087865;28;24434;-72
2023/01/26 05:22:45;;;;;;;9.88;7.95;;;;;;;-1.63;100.00;96071.47;5093191;28;24489;-72
2023/01/26 05:25:11;;;;;;;7.70;6.82;;;;;;;-1.55;100.00;96064.59;5096119;28;24437;-71
2023/01/26 05:27:39;;;;;;;8.32;6.80;;;;;;;-1.53;100.00;96062.84;5097907;28;24438;-71
2023/01/26 05:30:06;;;;;;;7.72;6.63;;;;;;;-1.49;100.00;96061.97;5095499;28;24441;-71
2023/01/26 05:32:32;;;;;;;8.63;7.35;;;;;;;-1.38;100.00;96066.94;5103011;28;24445;-73
2023/01/26 05:34:59;;;;;;;8.90;7.57;;;;;;;-1.32;100.00;96063.47;5093476;28;24433;-72
2023/01/26 05:37:27;;;;;;;10.20;7.88;;;;;;;-1.32;100.00;96061.78;5099756;28;24437;-72
2023/01/26 05:39:53;;;;;;;8.85;7.20;;;;;;;-1.31;100.00;96060.91;5089792;28;24551;-72
2023/01/26 05:42:20;;;;;;;9.65;8.00;;;;;;;-1.37;100.00;96063.53;5093338;28;24440;-72
2023/01/26 05:44:48;;;;;;;10.98;8.65;;;;;;;-1.10;100.00;96066.59;5095899;28;24428;-71
2023/01/26 05:47:14;;;;;;;12.95;8.93;;;;;;;-0.95;100.00;96068.94;5096708;28;24437;-72
2023/01/26 05:49:41;;;;;;;9.15;8.15;;;;;;;-1.12;100.00;96058.97;5101567;28;25002;-72
2023/01/26 05:52:09;;;;;;;10.52;8.57;;;;;;;-1.29;100.00;96071.91;5095046;28;24482;-72
2023/01/26 05:54:36;;;;;;;12.60;8.95;;;;;;;-1.40;100.00;96070.38;5098946;28;25025;-72
2023/01/26 05:57:02;;;;;;;9.52;8.50;;;;;;;-1.44;100.00;96072.09;5097880;28;24793;-72
2023/01/26 05:59:29;;;;;;;11.57;9.18;;;;;;;-1.29;100.00;96069.38;5088753;28;24445;-72
2023/01/26 06:01:57;;;;;;;12.65;9.38;;;;;;;-1.34;100.00;96065.19;5093047;28;24442;-71
2023/01/26 06:04:24;;;;;;;10.23;9.10;;;;;;;-1.35;100.00;96066.88;5100606;28;24456;-72
2023/01/26 06:06:53;;;;;;;11.07;9.57;;;;;;;-1.19;100.00;96061.63;5095047;28;24426;-72
2023/01/26 06:09:19;;;;;;;12.17;8.90;;;;;;;-1.30;100.00;96065.16;5095605;28;24479;-72
2023/01/26 06:11:46;;;;;;;10.43;9.02;;;;;;;-1.36;100.00;96065.22;5098281;28;24441;-72
2023/01/26 06:14:12;;;;;;;10.43;9.10;;;;;;;-1.36;100.00;96065.22;5090261;28;24797;-72
2023/01/26 06:16:39;;;;;;;13.40;10.30;;;;;;;-1.40;100.00;96067.81;5095603;28;24430;-73
2023/01/26 06:19:09;;;;;;;13.55;10.00;;;;;;;-1.30;100.00;96067.69;5089579;28;24998;-73
2023/01/26 06:21:36;;;;;;;14.55;10.25;;;;;;;-1.38;100.00;96068.63;5082570;28;24987;-72
2023/01/26 06:24:03;;;;;;;12.63;11.27;;;;;;;-1.50;100.00;96067.06;5094240;28;24460;-72
2023/01/26 06:26:30;;;;;;;13.18;10.60;;;;;;;-1.46;100.00;96069.56;5095584;28;24979;-72
2023/01/26 06:28:56;;;;;;;14.38;11.25;;;;;;;-1.68;100.00;96079.97;5095388;28;24975;-73
2023/01/26 06:31:23;;;;;;;13.32;10.82;;;;;;;-1.57;100.00;96078.16;5101189;28;25042;-72
2023/01/26 06:33:50;;;;;;;13.57;10.93;;;;;;;-1.68;100.00;96069.81;5092775;28;24466;-73
2023/01/26 06:36:18;;;;;;;15.18;11.13;;;;;;;-1.50;100.00;96069.59;5096509;28;24454;-73
2023/01/26 06:38:47;;;;;;;12.07;10.55;;;;;;;-1.59;100.00;96069.72;5085002;28;24450;-72
2023/01/26 06:41:14;;;;;;;14.57;11.88;;;;;;;-1.60;100.00;96066.31;5082383;28;24460;-70
2023/01/26 06:43:45;;;;;;;11.90;10.23;;;;;;;-1.36;100.00;96064.38;5091633;28;24470;-73
2023/01/26 06:46:12;;;;;;;13.50;10.13;;;;;;;-1.36;100.00;96065.22;5101904;28;24436;-69
2023/01/26 06:48:39;;;;;;;12.30;10.27;;;;;;;-1.60;100.00;96058.69;5094500;28;24427;-69
2023/01/26 06:51:42;;;;;;;13.25;10.38;;;;;;;-1.63;100.00;96073.13;5091720;28;24436;-69
2023/01/26 06:54:10;;;;;;;15.80;11.45;;;;;;;-1.57;100.00;96070.53;5095698;28;24449;-73
2023/01/26 06:56:37;;;;;;;12.68;10.70;;;;;;;-1.48;100.00;96075.53;5096223;28;24432;-72
2023/01/26 06:59:04;;;;;;;12.38;10.40;;;;;;;-1.44;100.00;96073.78;5091040;28;24643;-72
2023/01/26 07:01:35;;;;;;;13.15;10.25;;;;;;;-1.58;100.00;96076.47;5096311;28;24518;-72
2023/01/26 07:04:01;;;;;;;13.50;11.23;;;;;;;-1.67;100.00;96079.09;5095952;28;24811;-72
2023/01/26 07:06:28;;;;;;;15.60;10.95;;;;;;;-1.60;100.00;96075.63;5091665;28;24437;-73
2023/01/26 07:08:56;;;;;;;11.88;10.30;;;;;;;-1.39;100.00;96088.13;5089475;28;24731;-73
2023/01/26 07:11:24;;;;;;;10.02;9.00;;;;;;;-1.14;100.00;96086.13;5089877;28;24880;-72
2023/01/26 07:13:50;;;;;;;14.13;10.50;;;;;;;-1.37;100.00;96088.09;5089044;28;24462;-72
2023/01/26 07:16:17;;;;;;;13.90;11.13;;;;;;;-1.18;100.00;96086.19;5098996;28;24426;-72
2023/01/26 07:18:44;;;;;;;12.95;10.40;;;;;;;-1.47;100.00;96083.13;5098275;28;24982;-72
2023/01/26 07:21:12;;;;;;;11.77;9.77;;;;;;;-1.75;100.00;96096.94;5086141;28;24964;-72
2023/01/26 07:23:39;;;;;;;12.85;8.93;;;;;;;-1.65;100.00;96098.56;5089880;28;24462;-73
2023/01/26 07:26:07;;;;;;;11.77;9.05;;;;;;;-1.40;100.00;96090.69;5086634;28;24430;-73
2023/01/26 07:28:34;;;;;;;11.38;8.60;;;;;;;-1.42;100.00;96093.22;5087246;28;24499;-72
2023/01/26 07:31:02;;;;;;;10.43;9.33;;;;;;;-1.44;100.00;96100.03;5107711;28;24566;-72
2023/01/26 07:33:29;;;;;;;11.95;9.05;;;;;;;-1.37;100.00;96094.03;5097730;28;24823;-72
2023/01/26 07:35:56;;;;;;;13.68;9.68;;;;;;;-1.43;100.00;96101.72;5103453;28;24461;-72
2023/01/26 07:38:23;;;;;;;12.48;10.27;;;;;;;-1.42;100.00;96100.00;5097550;28;24438;-72
2023/01/26 07:40:50;;;;;;;17.60;9.70;;;;;;;-1.80;100.00;96103.78;5098056;28;24433;-72
2023/01/26 07:43:18;;;;;;;12.85;8.93;;;;;;;-1.98;100.00;96105.63;5095728;28;25022;-72
2023/01/26 07:45:45;;;;;;;12.48;9.57;;;;;;;-1.77;100.00;96094.44;5096385;28;24830;-72
2023/01/26 07:48:11;;;;;;;11.45;8.98;;;;;;;-1.74;100.00;96096.94;5091419;28;25168;-72
2023/01/26 07:50:38;;;;;;;12.15;8.70;;;;;;;-1.60;100.00;96091.72;5091393;28;24476;-72
2023/01/26 07:53:05;;;;;;;11.95;7.90;;;;;;;-1.54;100.00;96093.38;5099714;28;24804;-72
2023/01/26 07:55:31;;;;;;;11.25;8.98;;;;;;;-1.59;100.00;96098.50;5083119;28;24480;-72
2023/01/26 07:57:58;;;;;;;10.90;8.57;;;;;;;-1.65;100.00;96097.72;5083693;28;24436;-72
2023/01/26 08:00:26;;;;;;;10.88;9.05;;;;;;;-1.61;100.00;96096.81;5091091;28;24439;-72
2023/01/26 08:02:52;;;;;;;11.45;8.95;;;;;;;-1.91;100.00;96096.25;5091719;28;24444;-72
2023/01/26 08:05:19;;;;;;;12.25;9.50;;;;;;;-1.86;100.00;96091.13;5092098;28;24462;-72
2023/01/26 08:07:45;;;;;;;11.75;9.30;;;;;;;-2.06;100.00;96091.31;5091401;28;24431;-72
2023/01/26 08:10:13;;;;;;;11.18;8.60;;;;;;;-2.11;100.00;96096.44;5089974;28;24426;-72
2023/01/26 08:12:40;;;;;;;15.07;9.32;;;;;;;-1.91;100.00;96096.25;5092125;28;24480;-72
2023/01/26 08:15:07;;;;;;;11.13;9.50;;;;;;;-1.90;100.00;96110.63;5082695;28;24426;-73
2023/01/26 08:17:35;;;;;;;12.02;9.32;;;;;;;-1.81;100.00;96107.19;5095896;28;24433;-73
2023/01/26 08:20:02;;;;;;;11.73;9.90;;;;;;;-1.64;100.00;96114.63;5092928;28;24427;-73
2023/01/26 08:22:28;;;;;;;12.93;10.48;;;;;;;-1.68;100.00;96107.91;5085659;28;24519;-73
2023/01/26 08:24:55;;;;;;;12.65;10.38;;;;;;;-1.71;100.00;96096.94;5087798;28;24453;-73
2023/01/26 08:27:22;;;;;;;12.02;10.10;;;;;;;-1.86;100.00;96098.75;5100870;28;24429;-73
2023/01/26 08:29:50;;;;;;;13.75;10.23;;;;;;;-1.96;100.00;96100.53;5099218;28;24462;-73
2023/01/26 08:32:16;;;;;;;17.05;9.40;;;;;;;-1.62;100.00;96100.22;5104150;28;24490;-72
2023/01/26 08:34:44;;;;;;;12.75;10.63;;;;;;;-1.83;100.00;96102.09;5094841;28;24431;-72
2023/01/26 08:37:11;;;;;;;15.50;10.82;;;;;;;-1.81;100.00;96102.94;5100911;28;24440;-73
2023/01/26 08:39:37;;;;;;;11.10;9.33;;;;;;;-1.46;100.00;96109.38;5083315;28;24437;-72
2023/01/26 08:42:04;;;;;;;11.77;9.85;;;;;;;-1.40;100.00;96103.38;5097304;28;24437;-72
2023/01/26 08:44:30;;;;;;;11.13;9.52;;;;;;;-1.63;100.00;96107.00;5101670;28;24458;-72
2023/01/26 08:46:56;;;;;;;12.25;10.10;;;;;;;-1.98;100.00;96100.53;5089805;28;24432;-73
2023/01/26 08:49:23;;;;;;;10.40;9.02;;;;;;;-2.05;100.00;96100.59;5102598;28;24440;-72
2023/01/26 08:51:51;;;;;;;13.50;9.90;;;;;;;-1.98;100.00;96099.69;5090973;28;24442;-72
2023/01/26 08:54:17;;;;;;;13.13;9.98;;;;;;;-2.22;100.00;96098.22;5108240;28;24433;-72
2023/01/26 08:56:44;;;;;;;11.95;9.20;;;;;;;-2.02;100.00;96093.81;5090996;28;24433;-72
2023/01/26 08:59:10;;;;;;;11.02;8.90;;;;;;;-1.95;100.00;96095.44;5091822;28;24430;-72
2023/01/26 09:01:37;;;;;;;11.47;9.73;;;;;;;-2.11;100.00;96095.56;5095184;28;24524;-72
2023/01/26 09:04:03;;;;;;;15.27;10.20;;;;;;;-2.23;100.00;96099.88;5095843;28;24538;-72
2023/01/26 09:06:31;;;;;;;11.98;8.68;;;;;;;-2.42;100.00;96094.97;5100555;28;25034;-72
2023/01/26 09:08:59;;;;;;;10.80;8.77;;;;;;;-2.26;100.00;96099.94;5094590;28;24845;-73
2023/01/26 09:11:26;;;;;;;10.45;8.73;;;;;;;-2.17;100.00;96099.00;5099390;28;24438;-73
2023/01/26 09:13:55;;;;;;;12.43;9.75;;;;;;;-2.05;100.00;96098.91;5094253;28;24422;-73
2023/01/26 09:16:23;;;;;;;12.27;10.25;;;;;;;-2.01;100.00;96092.09;5094889;28;24486;-73
2023/01/26 09:18:50;;;;;;;11.82;10.40;;;;;;;-2.08;100.00;96098.09;5088784;28;24838;-73
2023/01/26 09:21:17;;;;;;;12.65;10.23;;;;;;;-2.28;100.00;96100.78;5089760;28;24480;-73
2023/01/26 09:23:44;;;;;;;16.70;10.65;;;;;;;-2.38;100.00;96096.63;5092926;28;24785;-73
2023/01/26 09:26:12;;;;;;;17.15;11.43;;;;;;;-2.47;100.00;96100.91;5090289;28;24440;-72
2023/01/26 09:28:38;;;;;;;15.18;11.52;;;;;;;-2.54;100.00;96089.13;5096346;28;24735;-72
2023/01/26 09:31:07;;;;;;;17.63;11.65;;;;;;;-2.58;100.00;96091.72;5093511;28;24974;-72
2023/01/26 09:33:33;;;;;;;15.50;11.70;;;;;;;-2.63;100.00;96095.94;5084606;28;24446;-72
2023/01/26 09:36:04;;;;;;;14.65;11.77;;;;;;;-2.42;100.00;96102.59;5081204;28;24445;-72
2023/01/26 09:38:31;;;;;;;13.57;11.80;;;;;;;-2.48;100.00;96098.41;5080236;28;24516;-72
2023/01/26 09:41:05;;;;;;;14.18;10.65;;;;;;;-2.39;100.00;96105.94;5097133;28;24425;-72
2023/01/26 09:43:38;;;;;;;16.45;12.73;;;;;;;-2.42;100.00;96103.41;5101338;28;24434;-72
2023/01/26 09:46:18;;;;;;;14.38;11.18;;;;;;;-2.49;100.00;96101.78;5092482;28;24429;-72
2023/01/26 09:48:57;;;;;;;14.55;11.38;;;;;;;-2.37;100.00;96109.31;5104306;28;24426;-72
2023/01/26 09:51:29;;;;;;;18.48;11.27;;;;;;;-2.35;100.00;96099.16;5086261;28;24444;-72
2023/01/26 09:53:59;;;;;;;13.13;10.75;;;;;;;-2.38;100.00;96105.09;5102898;28;24457;-72
2023/01/26 09:56:28;;;;;;;15.60;10.90;;;;;;;-2.27;100.00;96102.47;5091703;28;24955;-72
2023/01/26 09:59:00;;;;;;;14.20;11.13;;;;;;;-2.35;100.00;96104.22;5098041;28;24437;-71
2023/01/26 10:01:35;;;;;;;17.20;12.47;;;;;;;-2.42;100.00;96097.50;5089124;28;24433;-72
2023/01/26 10:04:09;;;;;;;17.45;13.25;;;;;;;-2.52;100.00;96095.06;5090102;28;24465;-72
2023/01/26 10:06:37;;;;;;;19.30;14.25;;;;;;;-2.54;100.00;96091.66;5095901;28;24505;-72
2023/01/26 10:09:11;;;;;;;16.27;13.55;;;;;;;-2.57;100.00;96098.44;5097913;28;24432;-72
2023/01/26 10:11:43;;;;;;;15.67;13.23;;;;;;;-2.51;100.00;96098.44;5082132;28;24948;-72
2023/01/26 10:14:14;;;;;;;15.88;13.13;;;;;;;-2.52;100.00;96097.59;5099381;28;24441;-72
2023/01/26 10:16:44;;;;;;;19.00;12.67;;;;;;;-2.53;100.00;96100.13;5098677;28;24437;-72
2023/01/26 10:19:16;;;;;;;13.65;12.07;;;;;;;-2.45;100.00;96095.81;5099429;28;24430;-72
2023/01/26 10:21:47;;;;;;;20.38;13.25;;;;;;;-2.50;100.00;96089.97;5103984;28;24425;-72
2023/01/26 10:24:17;;;;;;;17.33;13.48;;;;;;;-2.56;100.00;96084.91;5079342;28;24466;-72
2023/01/26 10:26:43;;;;;;;19.98;13.65;;;;;;;-2.42;100.00;96093.28;5102276;28;24870;-72
2023/01/26 10:29:15;;;;;;;18.85;13.70;;;;;;;-2.33;100.00;96083.06;5090931;28;24456;-72
2023/01/26 10:31:42;;;;;;;15.77;12.38;;;;;;;-2.21;100.00;96093.13;5097818;28;24422;-72
2023/01/26 10:34:13;;;;;;;15.15;12.85;;;;;;;-1.94;100.00;96093.75;5096501;28;24434;-72
2023/01/26 10:36:40;;;;;;;16.13;12.07;;;;;;;-2.15;100.00;96088.84;5095837;28;24999;-72
2023/01/26 10:39:08;;;;;;;16.58;11.52;;;;;;;-2.21;100.00;96094.81;5088423;28;24457;-72
2023/01/26 10:41:35;;;;;;;18.90;12.70;;;;;;;-2.09;100.00;96092.19;5094277;28;25850;-72
2023/01/26 10:44:04;;;;;;;17.92;13.52;;;;;;;-2.17;100.00;96088.03;5096839;28;24445;-72
2023/01/26 10:46:34;;;;;;;17.67;13.38;;;;;;;-2.11;100.00;96088.81;5092821;28;24445;-72
2023/01/26 10:49:14;;;;;;;22.13;12.48;;;;;;;-2.32;100.00;96089.81;5094144;28;24435;-72
2023/01/26 10:51:44;;;;;;;17.67;13.93;;;;;;;-2.41;100.00;96091.56;5090910;28;24507;-72
2023/01/26 10:54:19;;;;;;;19.95;14.23;;;;;;;-2.51;100.00;96088.28;5079248;28;24477;-72
2023/01/26 10:56:48;;;;;;;23.65;13.25;;;;;;;-2.41;100.00;96082.31;5083500;28;24794;-72
2023/01/26 10:59:22;;;;;;;21.70;14.48;;;;;;;-2.25;100.00;96075.41;5074394;28;24435;-72
2023/01/26 11:01:55;;;;;;;21.60;15.65;;;;;;;-2.09;100.00;96076.13;5081416;28;24426;-72
2023/01/26 11:04:23;;;;;;;21.02;15.70;;;;;;;-2.04;100.00;96072.69;5092861;28;24465;-74
2023/01/26 11:06:49;;;;;;;19.73;15.27;;;;;;;-2.18;100.00;96071.13;5091773;28;24501;-72
2023/01/26 11:09:20;;;;;;;24.75;15.65;;;;;;;-2.26;100.00;96077.09;5085941;28;24846;-72
2023/01/26 11:11:56;;;;;;;18.10;14.95;;;;;;;-2.04;100.00;96074.38;5090851;28;24437;-72
2023/01/26 11:14:23;;;;;;;19.70;14.30;;;;;;;-2.31;100.00;96073.75;5090618;28;24522;-72
2023/01/26 11:16:53;;;;;;;19.30;14.40;;;;;;;-2.23;100.00;96071.97;5096163;28;25027;-72
2023/01/26 11:19:38;;;;;;;22.67;14.38;;;;;;;-2.35;100.00;96067.00;5087802;28;24443;-72
2023/01/26 11:22:07;;;;;;;19.95;14.38;;;;;;;-2.25;100.00;96065.25;5082464;28;24986;-72
2023/01/26 11:24:39;;;;;;;19.97;14.17;;;;;;;-2.15;100.00;96068.53;5081634;28;24462;-72
2023/01/26 11:27:23;;;;;;;19.25;13.85;;;;;;;-2.14;100.00;96067.72;5074694;28;24429;-72
2023/01/26 11:30:32;;;;;;;17.65;12.82;;;;;;;-1.96;100.00;96059.94;5090648;28;24426;-72
2023/01/26 11:33:07;;;;;;;18.25;13.27;;;;;;;-2.08;100.00;96057.47;5090130;28;24429;-72
2023/01/26 11:35:46;;;;;;;16.40;12.30;;;;;;;-2.09;100.00;96043.13;5092200;28;24824;-72
2023/01/26 11:38:24;;;;;;;19.13;12.73;;;;;;;-2.19;100.00;96047.41;5087162;28;24426;-72
2023/01/26 11:40:59;;;;;;;13.20;11.23;;;;;;;-2.41;100.00;96045.91;5093475;28;24437;-72
2023/01/26 11:43:49;;;;;;;15.70;11.40;;;;;;;-2.39;100.00;96049.31;5086469;28;24445;-72
2023/01/26 11:46:28;;;;;;;15.95;11.05;;;;;;;-2.58;100.00;96038.47;5091997;28;24450;-73
2023/01/26 11:49:10;;;;;;;14.30;10.38;;;;;;;-2.61;100.00;96038.47;5081760;28;24993;-72
2023/01/26 11:51:50;;;;;;;15.95;11.10;;;;;;;-2.49;100.00;96035.84;5082116;28;24446;-72
2023/01/26 11:54:37;;;;;;;12.53;10.20;;;;;;;-2.20;100.00;96033.91;5084580;28;24445;-71
2023/01/26 11:57:17;;;;;;;15.83;11.70;;;;;;;-2.26;100.00;96030.59;5089036;28;24426;-71
2023/01/26 11:59:48;;;;;;;16.08;11.93;;;;;;;-2.39;100.00;96032.38;5093530;28;24438;-71
2023/01/26 12:02:28;;;;;;;14.27;11.88;;;;;;;-2.34;100.00;96024.72;5087555;28;24745;-71
2023/01/26 12:04:57;;;;;;;14.98;11.88;;;;;;;-2.50;100.00;96029.09;5097004;28;25315;-71
2023/01/26 12:07:30;;;;;;;16.05;12.10;;;;;;;-2.40;100.00;96032.41;5093954;28;24430;-72